C6042 KPIE-KPIE
Flight info
| Callsign | C6042 |
|---|---|
| Flight time | 0h 24m |
| Altitude | 3000 |
| Route | VFR |
| Aircraft | H60/L-DGILORTUVY/SB2 |
Departure
| Time | 2026-05-09 09:09 |
|---|---|
| Airport | St. Petersburg Clearwater International Airport (KPIE) |
Arrival
| Time | 2026-05-09 09:33 |
|---|---|
| Airport | St. Petersburg Clearwater International Airport (KPIE) |
| Time | Latitude | Longitude | Altitude | Speed | Heading |
|---|---|---|---|---|---|
| 2026-05-09 09:04 | 27.91300 | -82.69476 | 17 ft | 0 kts | 129° |
| 2026-05-09 09:09 | 27.91302 | -82.69473 | 142 ft | 12 kts | 310° |
| 2026-05-09 09:09 | 27.91456 | -82.69715 | 500 ft | 59 kts | 316° |
| 2026-05-09 09:09 | 27.91742 | -82.70196 | 1126 ft | 83 kts | 310° |
| 2026-05-09 09:09 | 27.92059 | -82.70717 | 1203 ft | 84 kts | 311° |
| 2026-05-09 09:10 | 27.92407 | -82.71250 | 1218 ft | 84 kts | 311° |
| 2026-05-09 09:10 | 27.92755 | -82.71777 | 1223 ft | 84 kts | 311° |
| 2026-05-09 09:10 | 27.93057 | -82.72333 | 1231 ft | 84 kts | 299° |
| 2026-05-09 09:10 | 27.93278 | -82.72863 | 1233 ft | 84 kts | 299° |
| 2026-05-09 09:11 | 27.93493 | -82.73473 | 1232 ft | 88 kts | 291° |
| 2026-05-09 09:11 | 27.93567 | -82.74184 | 1236 ft | 97 kts | 277° |
| 2026-05-09 09:11 | 27.93579 | -82.75126 | 1167 ft | 131 kts | 274° |
| 2026-05-09 09:11 | 27.93624 | -82.76137 | 1163 ft | 126 kts | 281° |
| 2026-05-09 09:12 | 27.93741 | -82.77128 | 1169 ft | 126 kts | 281° |
| 2026-05-09 09:12 | 27.93856 | -82.78121 | 1176 ft | 127 kts | 281° |
| 2026-05-09 09:12 | 27.93961 | -82.79123 | 1179 ft | 128 kts | 281° |
| 2026-05-09 09:12 | 27.94076 | -82.80119 | 1179 ft | 130 kts | 281° |
| 2026-05-09 09:13 | 27.94187 | -82.81112 | 1182 ft | 130 kts | 281° |
| 2026-05-09 09:13 | 27.94297 | -82.82114 | 1185 ft | 129 kts | 281° |
| 2026-05-09 09:13 | 27.94397 | -82.83098 | 1184 ft | 128 kts | 281° |
| 2026-05-09 09:13 | 27.94503 | -82.84096 | 1188 ft | 127 kts | 281° |
| 2026-05-09 09:14 | 27.94609 | -82.85095 | 1184 ft | 128 kts | 281° |
| 2026-05-09 09:14 | 27.94719 | -82.86096 | 1187 ft | 128 kts | 281° |
| 2026-05-09 09:14 | 27.94829 | -82.87101 | 1189 ft | 128 kts | 281° |
| 2026-05-09 09:14 | 27.94939 | -82.88105 | 1186 ft | 130 kts | 281° |
| 2026-05-09 09:15 | 27.95045 | -82.89105 | 1188 ft | 127 kts | 281° |
| 2026-05-09 09:15 | 27.95152 | -82.90118 | 1186 ft | 129 kts | 281° |
| 2026-05-09 09:15 | 27.95256 | -82.91102 | 1185 ft | 129 kts | 281° |
| 2026-05-09 09:15 | 27.95371 | -82.92105 | 1184 ft | 129 kts | 281° |
| 2026-05-09 09:16 | 27.95485 | -82.93095 | 1183 ft | 128 kts | 288° |
| 2026-05-09 09:16 | 27.96231 | -82.94993 | 1188 ft | 126 kts | 300° |
| 2026-05-09 09:16 | 27.96638 | -82.95860 | 1188 ft | 124 kts | 300° |
| 2026-05-09 09:17 | 27.97029 | -82.96730 | 1188 ft | 125 kts | 300° |
| 2026-05-09 09:17 | 27.97428 | -82.97605 | 1186 ft | 125 kts | 301° |
| 2026-05-09 09:17 | 27.97814 | -82.98502 | 1185 ft | 130 kts | 287° |
| 2026-05-09 09:17 | 27.98006 | -82.99467 | 1186 ft | 126 kts | 285° |
| 2026-05-09 09:18 | 27.98240 | -83.00437 | 1187 ft | 128 kts | 296° |
| 2026-05-09 09:18 | 27.98586 | -83.01352 | 1182 ft | 127 kts | 270° |
| 2026-05-09 09:18 | 27.98845 | -83.02325 | 1169 ft | 138 kts | 278° |
| 2026-05-09 09:18 | 27.98885 | -83.03366 | 1182 ft | 129 kts | 270° |
| 2026-05-09 09:19 | 27.98868 | -83.04363 | 1184 ft | 133 kts | 279° |
| 2026-05-09 09:19 | 27.98981 | -83.05385 | 1183 ft | 127 kts | 281° |
| 2026-05-09 09:19 | 27.99100 | -83.06388 | 1182 ft | 128 kts | 281° |
| 2026-05-09 09:19 | 27.99220 | -83.07400 | 1182 ft | 130 kts | 281° |
| 2026-05-09 09:20 | 27.99372 | -83.08431 | 1070 ft | 137 kts | 297° |
| 2026-05-09 09:20 | 27.99542 | -83.09387 | 1052 ft | 116 kts | 300° |
| 2026-05-09 09:20 | 27.99716 | -83.10255 | 926 ft | 112 kts | 305° |
| 2026-05-09 09:20 | 27.99926 | -83.11066 | 824 ft | 100 kts | 311° |
| 2026-05-09 09:21 | 28.00123 | -83.11807 | 839 ft | 95 kts | 310° |
| 2026-05-09 09:21 | 28.00401 | -83.12447 | 758 ft | 83 kts | 319° |
| 2026-05-09 09:21 | 28.00711 | -83.12920 | 631 ft | 67 kts | 316° |
| 2026-05-09 09:21 | 28.00944 | -83.13240 | 504 ft | 32 kts | 342° |
| 2026-05-09 09:22 | 28.01093 | -83.13247 | 331 ft | 14 kts | 355° |
| 2026-05-09 09:22 | 28.01122 | -83.13059 | 364 ft | 35 kts | 94° |
| 2026-05-09 09:22 | 28.01098 | -83.12693 | 537 ft | 68 kts | 98° |
| 2026-05-09 09:22 | 28.00950 | -83.11966 | 872 ft | 118 kts | 104° |
| 2026-05-09 09:23 | 28.00727 | -83.11029 | 973 ft | 125 kts | 104° |
| 2026-05-09 09:23 | 28.00495 | -83.10057 | 979 ft | 128 kts | 104° |
| 2026-05-09 09:23 | 28.00268 | -83.09074 | 976 ft | 129 kts | 104° |
| 2026-05-09 09:23 | 28.00041 | -83.08092 | 982 ft | 129 kts | 104° |
| 2026-05-09 09:24 | 27.99813 | -83.07103 | 980 ft | 131 kts | 104° |
| 2026-05-09 09:24 | 27.99579 | -83.06113 | 979 ft | 130 kts | 104° |
| 2026-05-09 09:24 | 27.99353 | -83.05135 | 981 ft | 131 kts | 104° |
| 2026-05-09 09:24 | 27.99127 | -83.04140 | 982 ft | 131 kts | 104° |
| 2026-05-09 09:25 | 27.98897 | -83.03145 | 983 ft | 131 kts | 104° |
| 2026-05-09 09:25 | 27.98672 | -83.02150 | 980 ft | 131 kts | 104° |
| 2026-05-09 09:25 | 27.98444 | -83.01160 | 987 ft | 130 kts | 104° |
| 2026-05-09 09:25 | 27.98209 | -83.00172 | 986 ft | 130 kts | 104° |
| 2026-05-09 09:26 | 27.97975 | -82.99180 | 987 ft | 130 kts | 104° |
| 2026-05-09 09:26 | 27.97746 | -82.98204 | 989 ft | 130 kts | 104° |
| 2026-05-09 09:26 | 27.97510 | -82.97194 | 987 ft | 131 kts | 104° |
| 2026-05-09 09:26 | 27.97283 | -82.96210 | 988 ft | 131 kts | 104° |
| 2026-05-09 09:27 | 27.97051 | -82.95215 | 987 ft | 131 kts | 104° |
| 2026-05-09 09:27 | 27.96825 | -82.94221 | 989 ft | 130 kts | 104° |
| 2026-05-09 09:27 | 27.96589 | -82.93236 | 991 ft | 130 kts | 104° |
| 2026-05-09 09:27 | 27.96353 | -82.92258 | 987 ft | 130 kts | 104° |
| 2026-05-09 09:28 | 27.96119 | -82.91271 | 991 ft | 130 kts | 104° |
| 2026-05-09 09:28 | 27.95885 | -82.90281 | 989 ft | 131 kts | 104° |
| 2026-05-09 09:28 | 27.95680 | -82.89323 | 989 ft | 131 kts | 104° |
| 2026-05-09 09:28 | 27.95456 | -82.88326 | 987 ft | 131 kts | 104° |
| 2026-05-09 09:29 | 27.95232 | -82.87346 | 989 ft | 131 kts | 104° |
| 2026-05-09 09:29 | 27.95001 | -82.86352 | 990 ft | 131 kts | 104° |
| 2026-05-09 09:29 | 27.94770 | -82.85357 | 988 ft | 131 kts | 104° |
| 2026-05-09 09:29 | 27.94541 | -82.84362 | 991 ft | 131 kts | 104° |
| 2026-05-09 09:30 | 27.94307 | -82.83362 | 989 ft | 131 kts | 104° |
| 2026-05-09 09:30 | 27.94082 | -82.82363 | 988 ft | 131 kts | 104° |
| 2026-05-09 09:30 | 27.93850 | -82.81360 | 989 ft | 132 kts | 104° |
| 2026-05-09 09:30 | 27.93623 | -82.80372 | 989 ft | 131 kts | 104° |
| 2026-05-09 09:31 | 27.93396 | -82.79375 | 990 ft | 131 kts | 104° |
| 2026-05-09 09:31 | 27.93166 | -82.78377 | 986 ft | 131 kts | 104° |
| 2026-05-09 09:31 | 27.92939 | -82.77378 | 992 ft | 131 kts | 104° |
| 2026-05-09 09:32 | 27.92470 | -82.75376 | 989 ft | 132 kts | 104° |
| 2026-05-09 09:32 | 27.92237 | -82.74376 | 989 ft | 132 kts | 104° |
| 2026-05-09 09:32 | 27.92003 | -82.73374 | 990 ft | 132 kts | 104° |
| 2026-05-09 09:32 | 27.91775 | -82.72371 | 988 ft | 133 kts | 104° |
| 2026-05-09 09:33 | 27.91549 | -82.71429 | 954 ft | 111 kts | 104° |
| 2026-05-09 09:33 | 27.91373 | -82.70744 | 834 ft | 73 kts | 105° |
| 2026-05-09 09:33 | 27.91278 | -82.70306 | 684 ft | 46 kts | 94° |
| 2026-05-09 09:33 | 27.91296 | -82.70009 | 459 ft | 31 kts | 92° |
| 2026-05-09 09:34 | 27.91314 | -82.69805 | 286 ft | 14 kts | 96° |
| 2026-05-09 09:34 | 27.91318 | -82.69674 | 162 ft | 22 kts | 101° |
| 2026-05-09 09:34 | 27.91299 | -82.69531 | 99 ft | 12 kts | 106° |
| 2026-05-09 09:36 | 27.91303 | -82.69462 | 40 ft | 9 kts | 4° |
| 2026-05-09 09:36 | 27.91504 | -82.69511 | 230 ft | 57 kts | 338° |
| 2026-05-09 09:36 | 27.91773 | -82.70071 | 694 ft | 91 kts | 270° |
| 2026-05-09 09:37 | 27.91793 | -82.70802 | 932 ft | 114 kts | 240° |
| 2026-05-09 09:37 | 27.91507 | -82.71739 | 856 ft | 131 kts | 230° |
| 2026-05-09 09:37 | 27.91010 | -82.72597 | 1022 ft | 131 kts | 211° |
| 2026-05-09 09:37 | 27.90270 | -82.73177 | 1048 ft | 129 kts | 190° |
| 2026-05-09 09:38 | 27.89399 | -82.73363 | 1055 ft | 131 kts | 184° |
| 2026-05-09 09:38 | 27.88482 | -82.73430 | 1053 ft | 133 kts | 184° |
| 2026-05-09 09:38 | 27.87629 | -82.73491 | 1052 ft | 135 kts | 183° |
| 2026-05-09 09:38 | 27.86696 | -82.73348 | 1042 ft | 138 kts | 164° |
| 2026-05-09 09:39 | 27.85791 | -82.73009 | 1052 ft | 136 kts | 162° |
| 2026-05-09 09:39 | 27.84898 | -82.72679 | 1053 ft | 135 kts | 162° |
| 2026-05-09 09:39 | 27.84010 | -82.72349 | 1054 ft | 134 kts | 162° |
| 2026-05-09 09:39 | 27.83115 | -82.72117 | 1054 ft | 134 kts | 178° |
| 2026-05-09 09:40 | 27.82185 | -82.72104 | 1053 ft | 134 kts | 186° |
| 2026-05-09 09:40 | 27.81271 | -82.72294 | 1045 ft | 134 kts | 197° |
| 2026-05-09 09:40 | 27.80375 | -82.72583 | 1044 ft | 134 kts | 197° |
| 2026-05-09 09:40 | 27.79480 | -82.72876 | 1044 ft | 134 kts | 197° |
| 2026-05-09 09:41 | 27.78583 | -82.73168 | 1044 ft | 134 kts | 197° |
| 2026-05-09 09:41 | 27.77685 | -82.73458 | 1043 ft | 134 kts | 197° |
| 2026-05-09 09:41 | 27.76788 | -82.73745 | 1044 ft | 134 kts | 197° |
| 2026-05-09 09:41 | 27.75891 | -82.74034 | 1043 ft | 134 kts | 197° |
| 2026-05-09 09:42 | 27.74993 | -82.74323 | 1045 ft | 134 kts | 197° |
| 2026-05-09 09:42 | 27.74110 | -82.74612 | 1043 ft | 134 kts | 197° |
| 2026-05-09 09:42 | 27.73215 | -82.74903 | 1044 ft | 134 kts | 197° |
| 2026-05-09 09:42 | 27.72320 | -82.75195 | 1044 ft | 134 kts | 197° |
| 2026-05-09 09:43 | 27.71425 | -82.75486 | 1044 ft | 134 kts | 197° |
| 2026-05-09 09:43 | 27.70530 | -82.75775 | 1045 ft | 134 kts | 197° |
| 2026-05-09 09:43 | 27.69635 | -82.76065 | 1045 ft | 134 kts | 197° |
| 2026-05-09 09:43 | 27.68738 | -82.76355 | 1043 ft | 134 kts | 197° |
| 2026-05-09 09:44 | 27.67840 | -82.76645 | 1045 ft | 134 kts | 197° |
| 2026-05-09 09:44 | 27.66955 | -82.76929 | 1043 ft | 134 kts | 197° |
| 2026-05-09 09:44 | 27.66062 | -82.77217 | 1045 ft | 134 kts | 197° |
| 2026-05-09 09:44 | 27.65168 | -82.77505 | 1045 ft | 134 kts | 197° |
| 2026-05-09 09:45 | 27.64274 | -82.77794 | 1046 ft | 134 kts | 197° |
| 2026-05-09 09:45 | 27.63381 | -82.78085 | 1046 ft | 134 kts | 197° |
| 2026-05-09 09:45 | 27.62488 | -82.78388 | 1046 ft | 135 kts | 197° |
| 2026-05-09 09:45 | 27.61591 | -82.78695 | 1047 ft | 135 kts | 197° |
| 2026-05-09 09:46 | 27.60690 | -82.78995 | 1046 ft | 135 kts | 197° |
| 2026-05-09 09:46 | 27.59794 | -82.79297 | 1047 ft | 135 kts | 197° |
| 2026-05-09 09:46 | 27.58908 | -82.79603 | 1045 ft | 135 kts | 197° |
| 2026-05-09 09:46 | 27.58012 | -82.79914 | 1046 ft | 134 kts | 197° |
| 2026-05-09 09:47 | 27.57115 | -82.80224 | 1046 ft | 135 kts | 197° |
| 2026-05-09 09:47 | 27.56217 | -82.80536 | 1048 ft | 135 kts | 197° |
| 2026-05-09 09:47 | 27.55316 | -82.80854 | 1048 ft | 136 kts | 197° |
| 2026-05-09 09:47 | 27.54414 | -82.81165 | 1048 ft | 135 kts | 197° |
| 2026-05-09 09:48 | 27.53516 | -82.81483 | 1051 ft | 136 kts | 197° |
| 2026-05-09 09:48 | 27.52615 | -82.81792 | 1051 ft | 135 kts | 197° |
| 2026-05-09 09:48 | 27.51729 | -82.82097 | 1051 ft | 135 kts | 197° |
| 2026-05-09 09:48 | 27.50835 | -82.82395 | 1053 ft | 134 kts | 197° |
| 2026-05-09 09:49 | 27.49945 | -82.82705 | 1053 ft | 134 kts | 197° |
| 2026-05-09 09:49 | 27.49053 | -82.83008 | 1049 ft | 134 kts | 197° |
| 2026-05-09 09:49 | 27.48165 | -82.83314 | 1054 ft | 134 kts | 197° |
| 2026-05-09 09:49 | 27.47269 | -82.83629 | 1052 ft | 135 kts | 197° |
| 2026-05-09 09:50 | 27.46331 | -82.83759 | 1054 ft | 136 kts | 179° |
| 2026-05-09 09:50 | 27.45389 | -82.83764 | 1052 ft | 136 kts | 179° |
| 2026-05-09 09:50 | 27.44446 | -82.83751 | 1054 ft | 135 kts | 179° |
| 2026-05-09 09:50 | 27.43524 | -82.83743 | 1052 ft | 135 kts | 179° |
| 2026-05-09 09:51 | 27.42586 | -82.83735 | 1049 ft | 134 kts | 179° |
| 2026-05-09 09:51 | 27.41653 | -82.83746 | 1054 ft | 134 kts | 181° |
| 2026-05-09 09:51 | 27.40726 | -82.83785 | 1056 ft | 134 kts | 181° |
| 2026-05-09 09:51 | 27.39798 | -82.83844 | 1056 ft | 134 kts | 188° |
| 2026-05-09 09:52 | 27.38876 | -82.83995 | 1057 ft | 134 kts | 188° |
| 2026-05-09 09:52 | 27.37971 | -82.84251 | 1056 ft | 135 kts | 198° |
| 2026-05-09 09:52 | 27.37077 | -82.84570 | 1058 ft | 135 kts | 198° |
| 2026-05-09 09:52 | 27.36199 | -82.84896 | 1055 ft | 135 kts | 198° |
| 2026-05-09 09:53 | 27.35301 | -82.85231 | 1055 ft | 136 kts | 198° |
| 2026-05-09 09:53 | 27.34402 | -82.85557 | 1055 ft | 135 kts | 198° |
| 2026-05-09 09:53 | 27.33508 | -82.85872 | 1053 ft | 134 kts | 198° |
| 2026-05-09 09:53 | 27.32619 | -82.86193 | 1056 ft | 135 kts | 198° |
| 2026-05-09 09:54 | 27.31729 | -82.86511 | 1053 ft | 134 kts | 198° |
| 2026-05-09 09:54 | 27.30846 | -82.86828 | 1055 ft | 133 kts | 198° |
| 2026-05-09 09:54 | 27.29964 | -82.87147 | 1051 ft | 133 kts | 198° |
| 2026-05-09 09:54 | 27.29080 | -82.87477 | 1057 ft | 135 kts | 198° |
| 2026-05-09 09:55 | 27.28194 | -82.87815 | 1056 ft | 135 kts | 198° |
| 2026-05-09 09:55 | 27.27320 | -82.88151 | 1052 ft | 135 kts | 198° |
| 2026-05-09 09:55 | 27.26432 | -82.88482 | 1055 ft | 134 kts | 198° |
| 2026-05-09 09:55 | 27.25547 | -82.88817 | 1052 ft | 134 kts | 198° |
| 2026-05-09 09:56 | 27.24668 | -82.89151 | 1052 ft | 133 kts | 198° |
| 2026-05-09 09:56 | 27.23786 | -82.89492 | 1055 ft | 134 kts | 198° |
| 2026-05-09 09:56 | 27.22903 | -82.89828 | 1053 ft | 134 kts | 198° |
| 2026-05-09 09:56 | 27.22016 | -82.90155 | 1050 ft | 134 kts | 198° |
| 2026-05-09 09:57 | 27.21133 | -82.90478 | 1052 ft | 133 kts | 198° |
| 2026-05-09 09:57 | 27.20251 | -82.90813 | 1053 ft | 134 kts | 198° |
| 2026-05-09 09:57 | 27.19378 | -82.91151 | 1051 ft | 135 kts | 198° |
| 2026-05-09 09:57 | 27.18451 | -82.91302 | 1052 ft | 135 kts | 182° |
| 2026-05-09 09:58 | 27.17520 | -82.91368 | 1054 ft | 134 kts | 182° |
| 2026-05-09 09:58 | 27.16593 | -82.91432 | 1055 ft | 133 kts | 182° |
| 2026-05-09 09:58 | 27.15670 | -82.91492 | 1055 ft | 133 kts | 182° |
| 2026-05-09 09:58 | 27.14749 | -82.91552 | 1054 ft | 132 kts | 182° |
| 2026-05-09 09:59 | 27.13830 | -82.91613 | 1051 ft | 132 kts | 182° |
| 2026-05-09 09:59 | 27.12910 | -82.91688 | 1057 ft | 133 kts | 182° |
| 2026-05-09 09:59 | 27.11998 | -82.91755 | 1055 ft | 133 kts | 182° |
| 2026-05-09 09:59 | 27.11071 | -82.91823 | 1054 ft | 133 kts | 182° |
| 2026-05-09 10:00 | 27.10148 | -82.91886 | 1058 ft | 133 kts | 182° |
| 2026-05-09 10:00 | 27.09225 | -82.91947 | 1054 ft | 133 kts | 182° |
| 2026-05-09 10:00 | 27.08306 | -82.92020 | 1054 ft | 132 kts | 182° |
| 2026-05-09 10:00 | 27.07385 | -82.92082 | 1056 ft | 132 kts | 182° |
| 2026-05-09 10:01 | 27.06468 | -82.92258 | 1054 ft | 134 kts | 187° |
| 2026-05-09 10:01 | 27.05553 | -82.92455 | 1043 ft | 136 kts | 192° |
| 2026-05-09 10:01 | 27.04637 | -82.92708 | 1053 ft | 135 kts | 191° |
| 2026-05-09 10:01 | 27.03736 | -82.92922 | 1053 ft | 133 kts | 191° |
| 2026-05-09 10:02 | 27.02830 | -82.93135 | 1054 ft | 133 kts | 191° |
| 2026-05-09 10:02 | 27.01921 | -82.93361 | 1056 ft | 134 kts | 191° |
| 2026-05-09 10:02 | 27.01016 | -82.93583 | 1053 ft | 133 kts | 191° |
| 2026-05-09 10:02 | 27.00111 | -82.93799 | 1055 ft | 132 kts | 191° |
| 2026-05-09 10:03 | 26.99210 | -82.94014 | 1056 ft | 132 kts | 191° |
| 2026-05-09 10:03 | 26.98310 | -82.94246 | 1054 ft | 133 kts | 191° |
| 2026-05-09 10:03 | 26.97406 | -82.94485 | 1056 ft | 133 kts | 191° |
| 2026-05-09 10:03 | 26.96504 | -82.94711 | 1056 ft | 133 kts | 191° |
| 2026-05-09 10:04 | 26.95614 | -82.94942 | 1056 ft | 133 kts | 191° |
| 2026-05-09 10:04 | 26.94718 | -82.95165 | 1052 ft | 132 kts | 191° |
| 2026-05-09 10:04 | 26.93836 | -82.95450 | 1052 ft | 132 kts | 201° |
| 2026-05-09 10:04 | 26.92986 | -82.95841 | 1055 ft | 132 kts | 201° |
| 2026-05-09 10:05 | 26.92138 | -82.96236 | 1053 ft | 132 kts | 201° |
| 2026-05-09 10:05 | 26.91291 | -82.96631 | 1054 ft | 132 kts | 201° |
| 2026-05-09 10:05 | 26.90442 | -82.97014 | 1057 ft | 132 kts | 201° |
| 2026-05-09 10:05 | 26.89589 | -82.97403 | 1058 ft | 133 kts | 201° |
| 2026-05-09 10:06 | 26.88750 | -82.97803 | 1060 ft | 133 kts | 201° |
| 2026-05-09 10:06 | 26.87880 | -82.98203 | 1054 ft | 134 kts | 192° |
| 2026-05-09 10:06 | 26.86977 | -82.98375 | 1059 ft | 133 kts | 187° |
| 2026-05-09 10:06 | 26.86065 | -82.98555 | 1057 ft | 133 kts | 187° |
| 2026-05-09 10:07 | 26.85155 | -82.98731 | 1058 ft | 132 kts | 187° |
| 2026-05-09 10:07 | 26.84252 | -82.98900 | 1061 ft | 131 kts | 187° |
| 2026-05-09 10:07 | 26.83355 | -82.99054 | 1055 ft | 130 kts | 187° |
| 2026-05-09 10:07 | 26.82459 | -82.99201 | 1059 ft | 130 kts | 187° |
| 2026-05-09 10:08 | 26.81562 | -82.99359 | 1055 ft | 130 kts | 187° |
| 2026-05-09 10:08 | 26.80666 | -82.99511 | 1057 ft | 130 kts | 187° |
| 2026-05-09 10:08 | 26.79778 | -82.99671 | 1057 ft | 131 kts | 187° |
| 2026-05-09 10:08 | 26.78875 | -82.99834 | 1054 ft | 131 kts | 187° |
| 2026-05-09 10:09 | 26.77971 | -82.99998 | 1054 ft | 132 kts | 187° |
| 2026-05-09 10:09 | 26.77059 | -83.00165 | 1051 ft | 133 kts | 187° |
| 2026-05-09 10:09 | 26.76146 | -83.00329 | 1054 ft | 133 kts | 187° |
| 2026-05-09 10:09 | 26.75238 | -83.00509 | 1055 ft | 132 kts | 187° |
| 2026-05-09 10:10 | 26.74328 | -83.00683 | 1055 ft | 132 kts | 187° |
| 2026-05-09 10:10 | 26.73423 | -83.00845 | 1048 ft | 131 kts | 187° |
| 2026-05-09 10:10 | 26.72521 | -83.00999 | 1049 ft | 130 kts | 187° |
| 2026-05-09 10:10 | 26.71629 | -83.01151 | 1054 ft | 130 kts | 187° |
| 2026-05-09 10:11 | 26.70769 | -83.01403 | 1056 ft | 129 kts | 197° |
| 2026-05-09 10:11 | 26.69912 | -83.01710 | 1055 ft | 130 kts | 197° |
| 2026-05-09 10:11 | 26.69050 | -83.02030 | 1056 ft | 131 kts | 197° |
| 2026-05-09 10:11 | 26.68182 | -83.02346 | 1053 ft | 131 kts | 189° |
| 2026-05-09 10:12 | 26.67288 | -83.02580 | 1053 ft | 132 kts | 189° |
| 2026-05-09 10:12 | 26.66385 | -83.02795 | 1055 ft | 133 kts | 189° |
| 2026-05-09 10:12 | 26.65485 | -83.03024 | 1053 ft | 133 kts | 189° |
| 2026-05-09 10:12 | 26.64584 | -83.03253 | 1057 ft | 132 kts | 189° |
| 2026-05-09 10:13 | 26.63685 | -83.03483 | 1053 ft | 132 kts | 189° |
| 2026-05-09 10:13 | 26.62790 | -83.03704 | 1051 ft | 131 kts | 189° |
| 2026-05-09 10:13 | 26.61913 | -83.03913 | 1053 ft | 130 kts | 189° |
| 2026-05-09 10:13 | 26.61025 | -83.04121 | 1050 ft | 131 kts | 189° |
| 2026-05-09 10:14 | 26.60130 | -83.04319 | 1050 ft | 130 kts | 189° |
| 2026-05-09 10:14 | 26.59244 | -83.04517 | 1050 ft | 130 kts | 189° |
| 2026-05-09 10:14 | 26.58357 | -83.04706 | 1051 ft | 130 kts | 189° |
| 2026-05-09 10:14 | 26.57469 | -83.04915 | 1053 ft | 131 kts | 189° |
| 2026-05-09 10:15 | 26.56574 | -83.05122 | 1051 ft | 131 kts | 189° |
| 2026-05-09 10:15 | 26.55691 | -83.05325 | 1052 ft | 131 kts | 189° |
| 2026-05-09 10:15 | 26.54797 | -83.05540 | 1052 ft | 132 kts | 189° |
| 2026-05-09 10:15 | 26.53907 | -83.05772 | 1049 ft | 132 kts | 189° |
| 2026-05-09 10:16 | 26.53009 | -83.05989 | 1052 ft | 132 kts | 189° |
| 2026-05-09 10:16 | 26.52112 | -83.06200 | 1045 ft | 132 kts | 189° |
| 2026-05-09 10:16 | 26.51221 | -83.06404 | 1047 ft | 130 kts | 189° |
| 2026-05-09 10:16 | 26.50338 | -83.06638 | 1045 ft | 130 kts | 189° |
| 2026-05-09 10:17 | 26.49453 | -83.06846 | 1057 ft | 130 kts | 189° |
| 2026-05-09 10:17 | 26.48577 | -83.07053 | 1055 ft | 131 kts | 189° |
| 2026-05-09 10:17 | 26.47684 | -83.07250 | 1057 ft | 131 kts | 189° |
| 2026-05-09 10:17 | 26.46788 | -83.07455 | 1058 ft | 132 kts | 189° |
| 2026-05-09 10:18 | 26.45898 | -83.07776 | 1055 ft | 136 kts | 197° |
| 2026-05-09 10:18 | 26.45010 | -83.08119 | 1057 ft | 135 kts | 197° |
| 2026-05-09 10:18 | 26.44119 | -83.08461 | 1053 ft | 135 kts | 197° |
| 2026-05-09 10:18 | 26.43233 | -83.08807 | 1049 ft | 135 kts | 197° |
| 2026-05-09 10:19 | 26.42355 | -83.09157 | 1051 ft | 133 kts | 197° |
| 2026-05-09 10:19 | 26.41480 | -83.09507 | 1053 ft | 133 kts | 197° |
| 2026-05-09 10:19 | 26.40622 | -83.09848 | 1049 ft | 132 kts | 197° |
| 2026-05-09 10:19 | 26.39756 | -83.10170 | 1054 ft | 131 kts | 197° |
| 2026-05-09 10:20 | 26.38899 | -83.10489 | 1056 ft | 129 kts | 197° |
| 2026-05-09 10:20 | 26.38050 | -83.10804 | 1056 ft | 128 kts | 197° |
| 2026-05-09 10:20 | 26.37203 | -83.11126 | 1056 ft | 129 kts | 197° |
| 2026-05-09 10:20 | 26.36352 | -83.11444 | 1055 ft | 129 kts | 197° |
| 2026-05-09 10:21 | 26.35498 | -83.11755 | 1052 ft | 129 kts | 188° |
| 2026-05-09 10:21 | 26.34605 | -83.11878 | 1052 ft | 130 kts | 173° |
| 2026-05-09 10:21 | 26.33705 | -83.11824 | 1052 ft | 130 kts | 173° |
| 2026-05-09 10:21 | 26.32806 | -83.11775 | 1048 ft | 129 kts | 173° |
| 2026-05-09 10:22 | 26.31924 | -83.11736 | 1051 ft | 128 kts | 173° |
| 2026-05-09 10:22 | 26.31040 | -83.11671 | 1049 ft | 127 kts | 173° |
| 2026-05-09 10:22 | 26.30155 | -83.11613 | 1054 ft | 127 kts | 173° |
| 2026-05-09 10:22 | 26.29277 | -83.11742 | 1046 ft | 131 kts | 195° |
| 2026-05-09 10:23 | 26.28432 | -83.12123 | 1051 ft | 131 kts | 199° |
| 2026-05-09 10:23 | 26.27591 | -83.12497 | 1046 ft | 129 kts | 199° |
| 2026-05-09 10:23 | 26.26751 | -83.12847 | 1053 ft | 129 kts | 199° |
| 2026-05-09 10:23 | 26.25927 | -83.13205 | 1056 ft | 129 kts | 199° |
| 2026-05-09 10:24 | 26.25091 | -83.13590 | 1052 ft | 130 kts | 199° |
| 2026-05-09 10:24 | 26.24248 | -83.13960 | 1053 ft | 131 kts | 199° |
| 2026-05-09 10:24 | 26.23406 | -83.14344 | 1053 ft | 131 kts | 199° |
| 2026-05-09 10:24 | 26.22560 | -83.14730 | 1053 ft | 132 kts | 199° |
| 2026-05-09 10:25 | 26.21702 | -83.15079 | 1057 ft | 131 kts | 194° |
| 2026-05-09 10:25 | 26.20833 | -83.15376 | 1057 ft | 130 kts | 194° |
| 2026-05-09 10:25 | 26.19968 | -83.15674 | 1055 ft | 130 kts | 194° |
| 2026-05-09 10:25 | 26.19112 | -83.15974 | 1050 ft | 129 kts | 194° |
| 2026-05-09 10:26 | 26.18208 | -83.16059 | 1044 ft | 132 kts | 178° |
| 2026-05-09 10:26 | 26.17308 | -83.16070 | 1053 ft | 128 kts | 178° |
| 2026-05-09 10:26 | 26.16428 | -83.16088 | 1052 ft | 126 kts | 178° |
| 2026-05-09 10:26 | 26.15548 | -83.16113 | 1054 ft | 126 kts | 178° |
| 2026-05-09 10:27 | 26.14675 | -83.16137 | 1058 ft | 126 kts | 178° |
| 2026-05-09 10:27 | 26.13794 | -83.16150 | 1055 ft | 126 kts | 178° |
| 2026-05-09 10:27 | 26.13213 | -83.16159 | 1053 ft | 127 kts | 178° |
| 2026-05-09 10:27 | 26.12329 | -83.16195 | 1053 ft | 127 kts | 178° |
| 2026-05-09 10:28 | 26.11163 | -83.16389 | 1051 ft | 133 kts | 196° |
| 2026-05-09 10:28 | 26.10301 | -83.16757 | 1053 ft | 132 kts | 196° |
| 2026-05-09 10:28 | 26.09440 | -83.17101 | 1051 ft | 130 kts | 196° |
| 2026-05-09 10:28 | 26.08595 | -83.17434 | 1055 ft | 129 kts | 196° |
| 2026-05-09 10:29 | 26.07761 | -83.17790 | 1049 ft | 127 kts | 196° |
| 2026-05-09 10:29 | 26.07212 | -83.18018 | 1052 ft | 127 kts | 196° |
| 2026-05-09 10:29 | 26.06382 | -83.18336 | 1048 ft | 126 kts | 196° |
| 2026-05-09 10:29 | 26.05556 | -83.18653 | 1051 ft | 125 kts | 196° |
| 2026-05-09 10:30 | 26.04733 | -83.18965 | 1050 ft | 125 kts | 196° |
| 2026-05-09 10:30 | 26.03910 | -83.19271 | 1049 ft | 125 kts | 192° |
| 2026-05-09 10:30 | 26.02794 | -83.19577 | 1055 ft | 126 kts | 191° |
| 2026-05-09 10:30 | 26.02223 | -83.19745 | 1053 ft | 125 kts | 192° |
| 2026-05-09 10:31 | 26.01376 | -83.19982 | 1053 ft | 126 kts | 191° |
| 2026-05-09 10:31 | 26.00525 | -83.20225 | 1049 ft | 127 kts | 191° |
| 2026-05-09 10:31 | 25.99687 | -83.20483 | 1050 ft | 128 kts | 192° |
| 2026-05-09 10:31 | 25.98828 | -83.20732 | 1051 ft | 127 kts | 191° |
| 2026-05-09 10:32 | 25.97978 | -83.20988 | 1048 ft | 127 kts | 191° |
| 2026-05-09 10:32 | 25.97131 | -83.21249 | 1047 ft | 126 kts | 192° |
| 2026-05-09 10:32 | 25.96285 | -83.21512 | 1047 ft | 126 kts | 192° |
| 2026-05-09 10:32 | 25.95442 | -83.21757 | 1049 ft | 125 kts | 192° |
| 2026-05-09 10:33 | 25.94605 | -83.22007 | 1048 ft | 124 kts | 192° |
| 2026-05-09 10:33 | 25.93768 | -83.22265 | 1049 ft | 125 kts | 191° |
| 2026-05-09 10:33 | 25.92936 | -83.22503 | 1053 ft | 125 kts | 191° |
| 2026-05-09 10:33 | 25.92091 | -83.22738 | 1051 ft | 125 kts | 191° |
| 2026-05-09 10:34 | 25.91249 | -83.22990 | 1049 ft | 125 kts | 192° |
| 2026-05-09 10:34 | 25.89556 | -83.23490 | 1047 ft | 127 kts | 191° |
| 2026-05-09 10:34 | 25.88703 | -83.23741 | 1050 ft | 127 kts | 191° |
| 2026-05-09 10:35 | 25.87852 | -83.23991 | 1050 ft | 126 kts | 191° |
| 2026-05-09 10:35 | 25.87008 | -83.24256 | 1046 ft | 125 kts | 191° |
| 2026-05-09 10:35 | 25.86171 | -83.24518 | 1053 ft | 125 kts | 191° |
| 2026-05-09 10:35 | 25.85344 | -83.24772 | 1047 ft | 125 kts | 192° |
| 2026-05-09 10:36 | 25.84509 | -83.25009 | 1049 ft | 124 kts | 192° |
| 2026-05-09 10:36 | 25.83672 | -83.25249 | 1044 ft | 124 kts | 192° |
| 2026-05-09 10:36 | 25.82840 | -83.25500 | 1049 ft | 124 kts | 192° |
| 2026-05-09 10:36 | 25.82000 | -83.25743 | 1051 ft | 125 kts | 192° |
| 2026-05-09 10:37 | 25.81151 | -83.25983 | 1046 ft | 126 kts | 192° |
| 2026-05-09 10:37 | 25.80300 | -83.26236 | 1050 ft | 127 kts | 192° |
| 2026-05-09 10:37 | 25.79446 | -83.26496 | 1050 ft | 127 kts | 192° |
| 2026-05-09 10:37 | 25.78610 | -83.26752 | 1045 ft | 125 kts | 192° |
| 2026-05-09 10:38 | 25.77775 | -83.27003 | 1049 ft | 124 kts | 192° |
| 2026-05-09 10:38 | 25.76943 | -83.27257 | 1051 ft | 124 kts | 192° |
| 2026-05-09 10:38 | 25.76107 | -83.27511 | 1046 ft | 124 kts | 192° |
| 2026-05-09 10:38 | 25.75280 | -83.27767 | 1050 ft | 123 kts | 192° |
| 2026-05-09 10:39 | 25.74445 | -83.28008 | 1048 ft | 124 kts | 192° |
| 2026-05-09 10:39 | 25.73616 | -83.28259 | 1046 ft | 123 kts | 192° |
| 2026-05-09 10:39 | 25.72791 | -83.28507 | 1048 ft | 123 kts | 192° |
| 2026-05-09 10:39 | 25.71965 | -83.28753 | 1049 ft | 123 kts | 192° |
| 2026-05-09 10:40 | 25.71145 | -83.28993 | 1047 ft | 123 kts | 192° |
| 2026-05-09 10:40 | 25.70314 | -83.29220 | 1048 ft | 123 kts | 192° |
| 2026-05-09 10:40 | 25.69484 | -83.29470 | 1049 ft | 124 kts | 192° |
| 2026-05-09 10:40 | 25.68651 | -83.29707 | 1045 ft | 124 kts | 192° |
| 2026-05-09 10:41 | 25.67820 | -83.29952 | 1046 ft | 124 kts | 192° |
| 2026-05-09 10:41 | 25.66990 | -83.30190 | 1049 ft | 123 kts | 192° |
| 2026-05-09 10:41 | 25.66158 | -83.30435 | 1050 ft | 125 kts | 192° |
| 2026-05-09 10:41 | 25.65312 | -83.30662 | 1049 ft | 125 kts | 192° |
| 2026-05-09 10:42 | 25.64486 | -83.30909 | 1048 ft | 125 kts | 192° |
| 2026-05-09 10:42 | 25.63641 | -83.31142 | 1047 ft | 125 kts | 192° |
| 2026-05-09 10:42 | 25.62796 | -83.31384 | 1052 ft | 126 kts | 192° |
| 2026-05-09 10:42 | 25.61949 | -83.31643 | 1046 ft | 126 kts | 192° |
| 2026-05-09 10:43 | 25.61105 | -83.31885 | 1046 ft | 126 kts | 188° |
| 2026-05-09 10:43 | 25.60239 | -83.31992 | 1049 ft | 125 kts | 182° |
| 2026-05-09 10:43 | 25.59373 | -83.32070 | 1046 ft | 124 kts | 182° |
| 2026-05-09 10:43 | 25.58519 | -83.32155 | 1046 ft | 122 kts | 182° |
| 2026-05-09 10:44 | 25.57676 | -83.32239 | 1048 ft | 121 kts | 182° |
| 2026-05-09 10:44 | 25.56844 | -83.32313 | 1050 ft | 122 kts | 182° |
| 2026-05-09 10:44 | 25.55999 | -83.32394 | 1050 ft | 123 kts | 182° |
| 2026-05-09 10:44 | 25.55145 | -83.32479 | 1047 ft | 123 kts | 182° |
| 2026-05-09 10:45 | 25.54294 | -83.32564 | 1045 ft | 122 kts | 182° |
| 2026-05-09 10:46 | 25.50934 | -83.32862 | 1047 ft | 122 kts | 184° |
| 2026-05-09 10:46 | 25.50096 | -83.32964 | 1045 ft | 122 kts | 184° |
| 2026-05-09 10:46 | 25.49248 | -83.33062 | 1045 ft | 123 kts | 184° |
| 2026-05-09 10:46 | 25.48401 | -83.33179 | 1047 ft | 122 kts | 184° |
| 2026-05-09 10:47 | 25.47559 | -83.33306 | 1039 ft | 119 kts | 181° |
| 2026-05-09 10:47 | 25.46993 | -83.33402 | 1072 ft | 44 kts | 183° |
| 2026-05-09 10:47 | 25.46820 | -83.33441 | 868 ft | 10 kts | 181° |
| 2026-05-09 10:47 | 25.46803 | -83.33435 | 765 ft | 5 kts | 179° |
| 2026-05-09 10:48 | 25.46667 | -83.33410 | 679 ft | 25 kts | 180° |
| 2026-05-09 10:48 | 25.46534 | -83.33398 | 544 ft | 16 kts | 180° |
| 2026-05-09 10:48 | 25.46395 | -83.33415 | 333 ft | 37 kts | 180° |
| 2026-05-09 10:48 | 25.46005 | -83.33434 | 233 ft | 70 kts | 174° |
| 2026-05-09 10:49 | 25.45696 | -83.33415 | 309 ft | 24 kts | 171° |
| 2026-05-09 10:49 | 25.45640 | -83.33365 | 194 ft | 4 kts | 165° |
| 2026-05-09 10:49 | 25.45679 | -83.33378 | 195 ft | 2 kts | 169° |
| 2026-05-09 10:49 | 25.45627 | -83.33350 | 267 ft | 7 kts | 169° |
| 2026-05-09 10:50 | 25.45549 | -83.33330 | 299 ft | 21 kts | 171° |
| 2026-05-09 10:50 | 25.45381 | -83.33301 | 324 ft | 23 kts | 167° |
| 2026-05-09 10:50 | 25.45274 | -83.33266 | 321 ft | 7 kts | 169° |
| 2026-05-09 10:50 | 25.45210 | -83.33243 | 240 ft | 13 kts | 161° |
| 2026-05-09 10:51 | 25.45207 | -83.33237 | 266 ft | 0 kts | 163° |
| 2026-05-09 10:51 | 25.45206 | -83.33236 | 336 ft | 0 kts | 163° |
| 2026-05-09 10:51 | 25.45205 | -83.33237 | 336 ft | 0 kts | 163° |
| 2026-05-09 10:51 | 25.45204 | -83.33237 | 337 ft | 0 kts | 163° |
| 2026-05-09 10:52 | 25.45204 | -83.33236 | 337 ft | 0 kts | 163° |
| 2026-05-09 10:52 | 25.45203 | -83.33236 | 338 ft | 0 kts | 163° |
| 2026-05-09 10:52 | 25.45202 | -83.33236 | 338 ft | 0 kts | 163° |
| 2026-05-09 10:52 | 25.45202 | -83.33237 | 338 ft | 0 kts | 163° |
| 2026-05-09 10:53 | 25.45201 | -83.33235 | 339 ft | 0 kts | 163° |
| 2026-05-09 10:53 | 25.45200 | -83.33235 | 339 ft | 0 kts | 163° |
| 2026-05-09 10:53 | 25.45199 | -83.33236 | 333 ft | 0 kts | 163° |
| 2026-05-09 10:53 | 25.45195 | -83.33233 | 341 ft | 6 kts | 137° |
| 2026-05-09 10:54 | 25.45299 | -83.33115 | 502 ft | 51 kts | 31° |
| 2026-05-09 10:54 | 25.45802 | -83.32814 | 650 ft | 106 kts | 38° |
| 2026-05-09 10:54 | 25.46514 | -83.32336 | 646 ft | 135 kts | 39° |
| 2026-05-09 10:54 | 25.47309 | -83.31783 | 649 ft | 131 kts | 39° |
| 2026-05-09 10:55 | 25.48079 | -83.31237 | 641 ft | 132 kts | 39° |
| 2026-05-09 10:55 | 25.48845 | -83.30665 | 647 ft | 135 kts | 39° |
| 2026-05-09 10:55 | 25.49603 | -83.30096 | 644 ft | 132 kts | 39° |
| 2026-05-09 10:55 | 25.50356 | -83.29546 | 643 ft | 127 kts | 39° |
| 2026-05-09 10:56 | 25.51123 | -83.28981 | 650 ft | 136 kts | 39° |
| 2026-05-09 10:56 | 25.51879 | -83.28411 | 654 ft | 132 kts | 39° |
| 2026-05-09 10:56 | 25.52638 | -83.27837 | 653 ft | 134 kts | 39° |
| 2026-05-09 10:56 | 25.53396 | -83.27266 | 648 ft | 130 kts | 39° |
| 2026-05-09 10:57 | 25.54139 | -83.26690 | 649 ft | 133 kts | 39° |
| 2026-05-09 10:57 | 25.54905 | -83.26122 | 648 ft | 133 kts | 39° |
| 2026-05-09 10:57 | 25.55667 | -83.25540 | 650 ft | 131 kts | 39° |
| 2026-05-09 10:57 | 25.56419 | -83.24981 | 650 ft | 127 kts | 39° |
| 2026-05-09 10:58 | 25.57181 | -83.24423 | 647 ft | 130 kts | 39° |
| 2026-05-09 10:58 | 25.57934 | -83.23863 | 643 ft | 132 kts | 39° |
| 2026-05-09 10:58 | 25.58680 | -83.23328 | 651 ft | 133 kts | 39° |
| 2026-05-09 10:58 | 25.59457 | -83.22770 | 648 ft | 130 kts | 39° |
| 2026-05-09 10:59 | 25.60206 | -83.22221 | 648 ft | 129 kts | 39° |
| 2026-05-09 10:59 | 25.60964 | -83.21651 | 645 ft | 129 kts | 39° |
| 2026-05-09 10:59 | 25.61717 | -83.21102 | 648 ft | 132 kts | 39° |
| 2026-05-09 10:59 | 25.62462 | -83.20538 | 650 ft | 131 kts | 39° |
| 2026-05-09 11:00 | 25.63211 | -83.19957 | 651 ft | 132 kts | 39° |
| 2026-05-09 11:00 | 25.63955 | -83.19380 | 653 ft | 129 kts | 39° |
| 2026-05-09 11:00 | 25.64721 | -83.18807 | 653 ft | 133 kts | 39° |
| 2026-05-09 11:00 | 25.65474 | -83.18244 | 653 ft | 130 kts | 39° |
| 2026-05-09 11:01 | 25.66243 | -83.17671 | 649 ft | 133 kts | 39° |
| 2026-05-09 11:01 | 25.67013 | -83.17093 | 647 ft | 135 kts | 39° |
| 2026-05-09 11:01 | 25.67785 | -83.16537 | 644 ft | 132 kts | 39° |
| 2026-05-09 11:01 | 25.68564 | -83.15983 | 646 ft | 138 kts | 39° |
| 2026-05-09 11:02 | 25.69339 | -83.15422 | 661 ft | 130 kts | 39° |
| 2026-05-09 11:02 | 25.70094 | -83.14858 | 657 ft | 128 kts | 39° |
| 2026-05-09 11:02 | 25.70837 | -83.14302 | 654 ft | 130 kts | 39° |
| 2026-05-09 11:02 | 25.71567 | -83.13742 | 652 ft | 131 kts | 39° |
| 2026-05-09 11:03 | 25.72323 | -83.13165 | 652 ft | 131 kts | 39° |
| 2026-05-09 11:03 | 25.73051 | -83.12593 | 654 ft | 127 kts | 39° |
| 2026-05-09 11:03 | 25.73798 | -83.12003 | 650 ft | 130 kts | 39° |
| 2026-05-09 11:03 | 25.74543 | -83.11424 | 650 ft | 132 kts | 39° |
| 2026-05-09 11:04 | 25.75291 | -83.10848 | 651 ft | 133 kts | 39° |
| 2026-05-09 11:04 | 25.76046 | -83.10271 | 651 ft | 131 kts | 39° |
| 2026-05-09 11:04 | 25.76801 | -83.09697 | 651 ft | 129 kts | 39° |
| 2026-05-09 11:04 | 25.77555 | -83.09133 | 653 ft | 130 kts | 39° |
| 2026-05-09 11:05 | 25.78317 | -83.08567 | 651 ft | 134 kts | 39° |
| 2026-05-09 11:05 | 25.79054 | -83.08011 | 654 ft | 130 kts | 39° |
| 2026-05-09 11:05 | 25.79794 | -83.07436 | 654 ft | 129 kts | 39° |
| 2026-05-09 11:05 | 25.80535 | -83.06858 | 654 ft | 130 kts | 39° |
| 2026-05-09 11:06 | 25.81264 | -83.06282 | 657 ft | 133 kts | 39° |
| 2026-05-09 11:06 | 25.82007 | -83.05703 | 657 ft | 129 kts | 39° |
| 2026-05-09 11:06 | 25.82755 | -83.05128 | 655 ft | 128 kts | 39° |
| 2026-05-09 11:06 | 25.83503 | -83.04541 | 654 ft | 131 kts | 39° |
| 2026-05-09 11:07 | 25.84244 | -83.03973 | 653 ft | 129 kts | 39° |
| 2026-05-09 11:07 | 25.84979 | -83.03421 | 651 ft | 128 kts | 39° |
| 2026-05-09 11:07 | 25.85716 | -83.02868 | 654 ft | 127 kts | 39° |
| 2026-05-09 11:07 | 25.86470 | -83.02309 | 654 ft | 128 kts | 39° |
| 2026-05-09 11:08 | 25.87199 | -83.01747 | 653 ft | 130 kts | 39° |
| 2026-05-09 11:08 | 25.87930 | -83.01175 | 655 ft | 131 kts | 45° |
| 2026-05-09 11:08 | 25.88653 | -83.00600 | 661 ft | 127 kts | 45° |
| 2026-05-09 11:08 | 25.89386 | -83.00008 | 656 ft | 131 kts | 44° |
| 2026-05-09 11:09 | 25.90116 | -82.99410 | 656 ft | 129 kts | 45° |
| 2026-05-09 11:09 | 25.90843 | -82.98811 | 657 ft | 128 kts | 44° |
| 2026-05-09 11:09 | 25.91542 | -82.98229 | 658 ft | 129 kts | 46° |
| 2026-05-09 11:09 | 25.92266 | -82.97618 | 657 ft | 132 kts | 47° |
| 2026-05-09 11:10 | 25.92991 | -82.96996 | 655 ft | 128 kts | 47° |
| 2026-05-09 11:10 | 25.93724 | -82.96360 | 653 ft | 132 kts | 47° |
| 2026-05-09 11:10 | 25.94431 | -82.95748 | 657 ft | 129 kts | 48° |
| 2026-05-09 11:10 | 25.95137 | -82.95131 | 656 ft | 132 kts | 49° |
| 2026-05-09 11:11 | 25.95840 | -82.94511 | 658 ft | 130 kts | 49° |
| 2026-05-09 11:11 | 25.96544 | -82.93881 | 659 ft | 129 kts | 49° |
| 2026-05-09 11:11 | 25.97243 | -82.93254 | 659 ft | 129 kts | 48° |
| 2026-05-09 11:11 | 25.97925 | -82.92638 | 657 ft | 125 kts | 49° |
| 2026-05-09 11:12 | 25.98606 | -82.92013 | 655 ft | 127 kts | 49° |
| 2026-05-09 11:12 | 25.99281 | -82.91390 | 656 ft | 127 kts | 50° |
| 2026-05-09 11:12 | 25.99964 | -82.90749 | 653 ft | 128 kts | 49° |
| 2026-05-09 11:12 | 26.00642 | -82.90106 | 654 ft | 129 kts | 50° |
| 2026-05-09 11:13 | 26.01312 | -82.89465 | 654 ft | 128 kts | 51° |
| 2026-05-09 11:13 | 26.01987 | -82.88810 | 653 ft | 129 kts | 51° |
| 2026-05-09 11:13 | 26.02667 | -82.88138 | 650 ft | 132 kts | 51° |
| 2026-05-09 11:13 | 26.03337 | -82.87470 | 649 ft | 131 kts | 51° |
| 2026-05-09 11:14 | 26.03991 | -82.86816 | 658 ft | 128 kts | 52° |
| 2026-05-09 11:14 | 26.04649 | -82.86149 | 657 ft | 132 kts | 53° |
| 2026-05-09 11:14 | 26.05308 | -82.85476 | 657 ft | 130 kts | 52° |
| 2026-05-09 11:14 | 26.05960 | -82.84802 | 656 ft | 129 kts | 51° |
| 2026-05-09 11:15 | 26.06606 | -82.84128 | 657 ft | 131 kts | 53° |
| 2026-05-09 11:15 | 26.07249 | -82.83451 | 659 ft | 127 kts | 53° |
| 2026-05-09 11:15 | 26.07889 | -82.82767 | 654 ft | 130 kts | 53° |
| 2026-05-09 11:15 | 26.08534 | -82.82069 | 657 ft | 129 kts | 53° |
| 2026-05-09 11:16 | 26.09175 | -82.81371 | 655 ft | 130 kts | 52° |
| 2026-05-09 11:16 | 26.09814 | -82.80679 | 647 ft | 134 kts | 41° |
| 2026-05-09 11:16 | 26.10568 | -82.80071 | 660 ft | 128 kts | 37° |
| 2026-05-09 11:16 | 26.11324 | -82.79540 | 659 ft | 130 kts | 37° |
| 2026-05-09 11:17 | 26.12064 | -82.79022 | 660 ft | 129 kts | 37° |
| 2026-05-09 11:17 | 26.12805 | -82.78496 | 661 ft | 126 kts | 37° |
| 2026-05-09 11:17 | 26.13552 | -82.77963 | 656 ft | 127 kts | 37° |
| 2026-05-09 11:17 | 26.14277 | -82.77423 | 657 ft | 129 kts | 37° |
| 2026-05-09 11:18 | 26.15018 | -82.76876 | 658 ft | 128 kts | 37° |
| 2026-05-09 11:18 | 26.15753 | -82.76318 | 657 ft | 128 kts | 37° |
| 2026-05-09 11:18 | 26.16494 | -82.75751 | 656 ft | 128 kts | 37° |
| 2026-05-09 11:18 | 26.17240 | -82.75180 | 653 ft | 132 kts | 37° |
| 2026-05-09 11:19 | 26.17995 | -82.74624 | 653 ft | 134 kts | 37° |
| 2026-05-09 11:19 | 26.18745 | -82.74069 | 657 ft | 130 kts | 37° |
| 2026-05-09 11:19 | 26.19497 | -82.73513 | 658 ft | 129 kts | 37° |
| 2026-05-09 11:19 | 26.20238 | -82.72955 | 659 ft | 127 kts | 37° |
| 2026-05-09 11:20 | 26.20964 | -82.72407 | 657 ft | 128 kts | 37° |
| 2026-05-09 11:20 | 26.21723 | -82.71851 | 658 ft | 130 kts | 37° |
| 2026-05-09 11:20 | 26.22453 | -82.71304 | 655 ft | 128 kts | 37° |
| 2026-05-09 11:20 | 26.23189 | -82.70744 | 654 ft | 127 kts | 37° |
| 2026-05-09 11:21 | 26.23926 | -82.70191 | 659 ft | 126 kts | 37° |
| 2026-05-09 11:21 | 26.24670 | -82.69634 | 655 ft | 129 kts | 37° |
| 2026-05-09 11:21 | 26.25376 | -82.69040 | 656 ft | 126 kts | 42° |
| 2026-05-09 11:21 | 26.26053 | -82.68382 | 655 ft | 129 kts | 43° |
| 2026-05-09 11:22 | 26.26743 | -82.67744 | 657 ft | 126 kts | 43° |
| 2026-05-09 11:22 | 26.27433 | -82.67121 | 656 ft | 128 kts | 43° |
| 2026-05-09 11:22 | 26.28116 | -82.66502 | 661 ft | 127 kts | 43° |
| 2026-05-09 11:22 | 26.28796 | -82.65876 | 658 ft | 128 kts | 43° |
| 2026-05-09 11:23 | 26.29474 | -82.65239 | 658 ft | 129 kts | 43° |
| 2026-05-09 11:23 | 26.30157 | -82.64599 | 656 ft | 128 kts | 43° |
| 2026-05-09 11:23 | 26.30845 | -82.63958 | 657 ft | 131 kts | 43° |
| 2026-05-09 11:23 | 26.31542 | -82.63320 | 658 ft | 129 kts | 43° |
| 2026-05-09 11:24 | 26.32234 | -82.62701 | 656 ft | 127 kts | 43° |
| 2026-05-09 11:24 | 26.32929 | -82.62074 | 657 ft | 131 kts | 43° |
| 2026-05-09 11:24 | 26.33610 | -82.61442 | 657 ft | 128 kts | 43° |
| 2026-05-09 11:24 | 26.34288 | -82.60815 | 658 ft | 129 kts | 42° |
| 2026-05-09 11:25 | 26.34962 | -82.60182 | 659 ft | 125 kts | 43° |
| 2026-05-09 11:25 | 26.35647 | -82.59560 | 658 ft | 127 kts | 42° |
| 2026-05-09 11:25 | 26.36334 | -82.58930 | 659 ft | 129 kts | 43° |
| 2026-05-09 11:25 | 26.37017 | -82.58301 | 662 ft | 128 kts | 43° |
| 2026-05-09 11:26 | 26.37734 | -82.57672 | 655 ft | 128 kts | 40° |
| 2026-05-09 11:26 | 26.38440 | -82.57065 | 653 ft | 128 kts | 40° |
| 2026-05-09 11:26 | 26.39143 | -82.56462 | 654 ft | 130 kts | 40° |
| 2026-05-09 11:26 | 26.39856 | -82.55857 | 656 ft | 129 kts | 40° |
| 2026-05-09 11:27 | 26.40571 | -82.55263 | 660 ft | 125 kts | 40° |
| 2026-05-09 11:27 | 26.41276 | -82.54666 | 659 ft | 126 kts | 40° |
| 2026-05-09 11:27 | 26.41976 | -82.54065 | 658 ft | 127 kts | 40° |
| 2026-05-09 11:27 | 26.42678 | -82.53457 | 656 ft | 128 kts | 40° |
| 2026-05-09 11:28 | 26.43385 | -82.52851 | 656 ft | 131 kts | 40° |
| 2026-05-09 11:28 | 26.44103 | -82.52244 | 657 ft | 128 kts | 40° |
| 2026-05-09 11:28 | 26.44820 | -82.51640 | 658 ft | 127 kts | 40° |
| 2026-05-09 11:28 | 26.45534 | -82.51041 | 658 ft | 129 kts | 40° |
| 2026-05-09 11:29 | 26.46224 | -82.50455 | 659 ft | 126 kts | 40° |
| 2026-05-09 11:29 | 26.46934 | -82.49859 | 658 ft | 129 kts | 40° |
| 2026-05-09 11:29 | 26.47648 | -82.49249 | 655 ft | 130 kts | 40° |
| 2026-05-09 11:29 | 26.48358 | -82.48648 | 654 ft | 127 kts | 40° |
| 2026-05-09 11:30 | 26.49067 | -82.48060 | 659 ft | 129 kts | 40° |
| 2026-05-09 11:30 | 26.49773 | -82.47467 | 660 ft | 128 kts | 40° |
| 2026-05-09 11:30 | 26.50487 | -82.46870 | 658 ft | 129 kts | 40° |
| 2026-05-09 11:30 | 26.51198 | -82.46259 | 658 ft | 129 kts | 40° |
| 2026-05-09 11:31 | 26.51910 | -82.45656 | 655 ft | 130 kts | 40° |
| 2026-05-09 11:31 | 26.52612 | -82.45058 | 654 ft | 131 kts | 40° |
| 2026-05-09 11:31 | 26.53329 | -82.44459 | 658 ft | 129 kts | 39° |
| 2026-05-09 11:31 | 26.54041 | -82.43863 | 658 ft | 127 kts | 40° |
| 2026-05-09 11:32 | 26.54742 | -82.43276 | 660 ft | 129 kts | 40° |
| 2026-05-09 11:32 | 26.55445 | -82.42677 | 658 ft | 127 kts | 40° |
| 2026-05-09 11:32 | 26.56157 | -82.42063 | 659 ft | 126 kts | 40° |
| 2026-05-09 11:32 | 26.56873 | -82.41464 | 656 ft | 128 kts | 40° |
| 2026-05-09 11:33 | 26.57590 | -82.40864 | 662 ft | 131 kts | 40° |
| 2026-05-09 11:33 | 26.58309 | -82.40260 | 658 ft | 130 kts | 40° |
| 2026-05-09 11:33 | 26.59705 | -82.39048 | 655 ft | 125 kts | 40° |
| 2026-05-09 11:34 | 26.60409 | -82.38440 | 661 ft | 130 kts | 40° |
| 2026-05-09 11:34 | 26.61116 | -82.37820 | 660 ft | 130 kts | 40° |
| 2026-05-09 11:34 | 26.61820 | -82.37212 | 661 ft | 127 kts | 40° |
| 2026-05-09 11:34 | 26.62520 | -82.36604 | 660 ft | 128 kts | 40° |
| 2026-05-09 11:35 | 26.63222 | -82.35998 | 656 ft | 129 kts | 39° |
| 2026-05-09 11:35 | 26.63928 | -82.35382 | 657 ft | 129 kts | 39° |
| 2026-05-09 11:35 | 26.64630 | -82.34770 | 658 ft | 128 kts | 39° |
| 2026-05-09 11:35 | 26.65339 | -82.34154 | 655 ft | 127 kts | 39° |
| 2026-05-09 11:36 | 26.66047 | -82.33538 | 657 ft | 127 kts | 39° |
| 2026-05-09 11:36 | 26.66755 | -82.32929 | 657 ft | 130 kts | 39° |
| 2026-05-09 11:36 | 26.67463 | -82.32314 | 657 ft | 130 kts | 39° |
| 2026-05-09 11:36 | 26.68165 | -82.31707 | 657 ft | 128 kts | 39° |
| 2026-05-09 11:37 | 26.68870 | -82.31091 | 658 ft | 128 kts | 39° |
| 2026-05-09 11:37 | 26.69577 | -82.30471 | 658 ft | 128 kts | 39° |
| 2026-05-09 11:37 | 26.70284 | -82.29860 | 658 ft | 130 kts | 39° |
| 2026-05-09 11:37 | 26.70992 | -82.29248 | 659 ft | 130 kts | 39° |
| 2026-05-09 11:38 | 26.71701 | -82.28635 | 659 ft | 127 kts | 39° |
| 2026-05-09 11:38 | 26.72409 | -82.28013 | 658 ft | 130 kts | 39° |
| 2026-05-09 11:38 | 26.73115 | -82.27399 | 658 ft | 130 kts | 39° |
| 2026-05-09 11:38 | 26.73820 | -82.26783 | 660 ft | 128 kts | 39° |
| 2026-05-09 11:39 | 26.74529 | -82.26171 | 663 ft | 128 kts | 39° |
| 2026-05-09 11:39 | 26.75238 | -82.25552 | 660 ft | 128 kts | 39° |
| 2026-05-09 11:39 | 26.75946 | -82.24937 | 662 ft | 128 kts | 39° |
| 2026-05-09 11:40 | 26.77354 | -82.23716 | 662 ft | 131 kts | 39° |
| 2026-05-09 11:40 | 26.78066 | -82.23097 | 665 ft | 131 kts | 39° |
| 2026-05-09 11:40 | 26.78778 | -82.22475 | 664 ft | 129 kts | 39° |
| 2026-05-09 11:40 | 26.79485 | -82.21866 | 666 ft | 129 kts | 39° |
| 2026-05-09 11:41 | 26.80195 | -82.21253 | 663 ft | 131 kts | 39° |
| 2026-05-09 11:41 | 26.80904 | -82.20638 | 665 ft | 129 kts | 39° |
| 2026-05-09 11:41 | 26.81608 | -82.20030 | 666 ft | 127 kts | 39° |
| 2026-05-09 11:41 | 26.82321 | -82.19413 | 666 ft | 131 kts | 39° |
| 2026-05-09 11:42 | 26.83024 | -82.18805 | 667 ft | 129 kts | 39° |
| 2026-05-09 11:42 | 26.83739 | -82.18185 | 668 ft | 127 kts | 39° |
| 2026-05-09 11:42 | 26.84450 | -82.17577 | 670 ft | 128 kts | 39° |
| 2026-05-09 11:42 | 26.85162 | -82.16973 | 667 ft | 130 kts | 39° |
| 2026-05-09 11:43 | 26.85877 | -82.16358 | 666 ft | 129 kts | 39° |
| 2026-05-09 11:43 | 26.86590 | -82.15742 | 668 ft | 130 kts | 39° |
| 2026-05-09 11:43 | 26.87296 | -82.15139 | 668 ft | 128 kts | 39° |
| 2026-05-09 11:43 | 26.88022 | -82.14526 | 668 ft | 129 kts | 39° |
| 2026-05-09 11:44 | 26.88724 | -82.13927 | 669 ft | 129 kts | 39° |
| 2026-05-09 11:44 | 26.89436 | -82.13316 | 669 ft | 128 kts | 39° |
| 2026-05-09 11:44 | 26.90155 | -82.12705 | 668 ft | 130 kts | 39° |
| 2026-05-09 11:44 | 26.90871 | -82.12094 | 670 ft | 128 kts | 39° |
| 2026-05-09 11:45 | 26.91592 | -82.11476 | 670 ft | 128 kts | 39° |
| 2026-05-09 11:45 | 26.92307 | -82.10864 | 672 ft | 128 kts | 39° |
| 2026-05-09 11:45 | 26.93024 | -82.10255 | 667 ft | 129 kts | 39° |
| 2026-05-09 11:45 | 26.93733 | -82.09654 | 669 ft | 127 kts | 39° |
| 2026-05-09 11:46 | 26.94437 | -82.09057 | 669 ft | 128 kts | 39° |
| 2026-05-09 11:46 | 26.95158 | -82.08446 | 671 ft | 130 kts | 39° |
| 2026-05-09 11:46 | 26.95875 | -82.07830 | 671 ft | 130 kts | 39° |
| 2026-05-09 11:46 | 26.96561 | -82.07244 | 1176 ft | 110 kts | 40° |
| 2026-05-09 11:47 | 26.97144 | -82.06758 | 1517 ft | 110 kts | 40° |
| 2026-05-09 11:47 | 26.97744 | -82.06251 | 1513 ft | 108 kts | 40° |
| 2026-05-09 11:47 | 26.98333 | -82.05757 | 1513 ft | 106 kts | 40° |
| 2026-05-09 11:47 | 26.98928 | -82.05258 | 1512 ft | 105 kts | 40° |
| 2026-05-09 11:48 | 26.99516 | -82.04763 | 1508 ft | 106 kts | 40° |
| 2026-05-09 11:48 | 27.00094 | -82.04277 | 1509 ft | 106 kts | 40° |
| 2026-05-09 11:48 | 27.00685 | -82.03779 | 1511 ft | 106 kts | 40° |
| 2026-05-09 11:48 | 27.01273 | -82.03286 | 1502 ft | 105 kts | 40° |
| 2026-05-09 11:49 | 27.01860 | -82.02796 | 1507 ft | 105 kts | 40° |
| 2026-05-09 11:49 | 27.02450 | -82.02304 | 1503 ft | 106 kts | 40° |
| 2026-05-09 11:49 | 27.03037 | -82.01814 | 1506 ft | 107 kts | 40° |
| 2026-05-09 11:49 | 27.03629 | -82.01319 | 1507 ft | 106 kts | 40° |
| 2026-05-09 11:50 | 27.04224 | -82.00820 | 1505 ft | 107 kts | 40° |
| 2026-05-09 11:50 | 27.04805 | -82.00336 | 1506 ft | 106 kts | 39° |
| 2026-05-09 11:50 | 27.05401 | -81.99837 | 1505 ft | 107 kts | 40° |
| 2026-05-09 11:50 | 27.05995 | -81.99341 | 1500 ft | 106 kts | 39° |
| 2026-05-09 11:51 | 27.06584 | -81.98849 | 1505 ft | 105 kts | 39° |
| 2026-05-09 11:51 | 27.07173 | -81.98358 | 1503 ft | 106 kts | 39° |
| 2026-05-09 11:51 | 27.07760 | -81.97868 | 1500 ft | 107 kts | 39° |
| 2026-05-09 11:51 | 27.08351 | -81.97377 | 1500 ft | 106 kts | 39° |
| 2026-05-09 11:52 | 27.08942 | -81.96886 | 1504 ft | 105 kts | 39° |
| 2026-05-09 11:52 | 27.09535 | -81.96396 | 1500 ft | 105 kts | 39° |
| 2026-05-09 11:52 | 27.10114 | -81.95916 | 1501 ft | 105 kts | 39° |
| 2026-05-09 11:52 | 27.10704 | -81.95424 | 1498 ft | 106 kts | 39° |
| 2026-05-09 11:53 | 27.11296 | -81.94934 | 1502 ft | 106 kts | 39° |
| 2026-05-09 11:53 | 27.11888 | -81.94442 | 1499 ft | 106 kts | 39° |
| 2026-05-09 11:53 | 27.12473 | -81.93955 | 1500 ft | 106 kts | 39° |
| 2026-05-09 11:53 | 27.13073 | -81.93452 | 1500 ft | 106 kts | 39° |
| 2026-05-09 11:54 | 27.13663 | -81.92960 | 1501 ft | 105 kts | 39° |
| 2026-05-09 11:54 | 27.14246 | -81.92475 | 1499 ft | 105 kts | 39° |
| 2026-05-09 11:54 | 27.14833 | -81.91987 | 1501 ft | 105 kts | 39° |
| 2026-05-09 11:54 | 27.15425 | -81.91498 | 1499 ft | 106 kts | 39° |
| 2026-05-09 11:55 | 27.16017 | -81.91008 | 1496 ft | 106 kts | 39° |
| 2026-05-09 11:56 | 27.18987 | -81.88553 | 1491 ft | 107 kts | 39° |
| 2026-05-09 11:56 | 27.19573 | -81.88071 | 1496 ft | 106 kts | 39° |
| 2026-05-09 11:56 | 27.20162 | -81.87585 | 1488 ft | 105 kts | 40° |
| 2026-05-09 11:57 | 27.20692 | -81.87120 | 1451 ft | 88 kts | 42° |
| 2026-05-09 11:57 | 27.21131 | -81.86751 | 1538 ft | 70 kts | 42° |
| 2026-05-09 11:57 | 27.21459 | -81.86431 | 1505 ft | 57 kts | 39° |
| 2026-05-09 11:57 | 27.21636 | -81.86058 | 1338 ft | 50 kts | 50° |
| 2026-05-09 11:58 | 27.21825 | -81.85761 | 1175 ft | 44 kts | 57° |
| 2026-05-09 11:58 | 27.22054 | -81.85541 | 1002 ft | 49 kts | 41° |
| 2026-05-09 11:58 | 27.22331 | -81.85235 | 856 ft | 56 kts | 18° |
| 2026-05-09 11:58 | 27.22553 | -81.84962 | 670 ft | 35 kts | 346° |
| 2026-05-09 11:59 | 27.22648 | -81.84898 | 433 ft | 1 kts | 341° |
| 2026-05-09 11:59 | 27.22657 | -81.84930 | 230 ft | 11 kts | 348° |
| 2026-05-09 11:59 | 27.22725 | -81.84950 | 123 ft | 8 kts | 344° |
| 2026-05-09 11:59 | 27.22766 | -81.84960 | 93 ft | 3 kts | 336° |
| 2026-05-09 12:00 | 27.22788 | -81.84971 | 71 ft | 2 kts | 335° |
| 2026-05-09 12:00 | 27.22790 | -81.84973 | 70 ft | 0 kts | 335° |
| 2026-05-09 12:02 | 27.22791 | -81.84973 | 83 ft | 3 kts | 327° |
| 2026-05-09 12:03 | 27.22882 | -81.85099 | 214 ft | 42 kts | 311° |
| 2026-05-09 12:03 | 27.23147 | -81.85516 | 560 ft | 91 kts | 311° |
| 2026-05-09 12:03 | 27.23687 | -81.86190 | 785 ft | 131 kts | 315° |
| 2026-05-09 12:03 | 27.24299 | -81.86921 | 1076 ft | 127 kts | 315° |
| 2026-05-09 12:04 | 27.24936 | -81.87674 | 1093 ft | 132 kts | 315° |
| 2026-05-09 12:04 | 27.25565 | -81.88409 | 1093 ft | 131 kts | 315° |
| 2026-05-09 12:04 | 27.26183 | -81.89138 | 1096 ft | 131 kts | 315° |
| 2026-05-09 12:04 | 27.26811 | -81.89871 | 1100 ft | 130 kts | 315° |
| 2026-05-09 12:05 | 27.27447 | -81.90614 | 1099 ft | 133 kts | 315° |
| 2026-05-09 12:05 | 27.28081 | -81.91355 | 1101 ft | 131 kts | 315° |
| 2026-05-09 12:05 | 27.28711 | -81.92094 | 1102 ft | 131 kts | 315° |
| 2026-05-09 12:05 | 27.29341 | -81.92830 | 1105 ft | 130 kts | 315° |
| 2026-05-09 12:06 | 27.29971 | -81.93563 | 1105 ft | 130 kts | 315° |
| 2026-05-09 12:06 | 27.30604 | -81.94297 | 1104 ft | 131 kts | 315° |
| 2026-05-09 12:06 | 27.31231 | -81.95024 | 1104 ft | 132 kts | 315° |
| 2026-05-09 12:06 | 27.31865 | -81.95753 | 1104 ft | 131 kts | 315° |
| 2026-05-09 12:07 | 27.32499 | -81.96484 | 1104 ft | 130 kts | 315° |
| 2026-05-09 12:07 | 27.33131 | -81.97222 | 1103 ft | 131 kts | 315° |
| 2026-05-09 12:07 | 27.33772 | -81.97961 | 1105 ft | 132 kts | 315° |
| 2026-05-09 12:07 | 27.34407 | -81.98694 | 1104 ft | 131 kts | 315° |
| 2026-05-09 12:08 | 27.35036 | -81.99425 | 1107 ft | 130 kts | 315° |
| 2026-05-09 12:08 | 27.35675 | -82.00162 | 1107 ft | 131 kts | 315° |
| 2026-05-09 12:08 | 27.36306 | -82.00894 | 1107 ft | 130 kts | 315° |
| 2026-05-09 12:08 | 27.36946 | -82.01631 | 1106 ft | 131 kts | 315° |
| 2026-05-09 12:09 | 27.37572 | -82.02355 | 1107 ft | 131 kts | 315° |
| 2026-05-09 12:09 | 27.38207 | -82.03093 | 1107 ft | 131 kts | 315° |
| 2026-05-09 12:09 | 27.38834 | -82.03826 | 1107 ft | 130 kts | 315° |
| 2026-05-09 12:10 | 27.40729 | -82.06030 | 1108 ft | 131 kts | 315° |
| 2026-05-09 12:10 | 27.41357 | -82.06768 | 1107 ft | 130 kts | 315° |
| 2026-05-09 12:10 | 27.41993 | -82.07512 | 1107 ft | 131 kts | 315° |
| 2026-05-09 12:11 | 27.42615 | -82.08235 | 1106 ft | 132 kts | 315° |
| 2026-05-09 12:11 | 27.43250 | -82.08976 | 1108 ft | 130 kts | 315° |
| 2026-05-09 12:11 | 27.43881 | -82.09711 | 1109 ft | 132 kts | 315° |
| 2026-05-09 12:11 | 27.44515 | -82.10450 | 1107 ft | 130 kts | 315° |
| 2026-05-09 12:12 | 27.45148 | -82.11186 | 1107 ft | 131 kts | 315° |
| 2026-05-09 12:12 | 27.45781 | -82.11918 | 1108 ft | 131 kts | 315° |
| 2026-05-09 12:12 | 27.46418 | -82.12657 | 1106 ft | 131 kts | 315° |
| 2026-05-09 12:12 | 27.47048 | -82.13391 | 1107 ft | 132 kts | 315° |
| 2026-05-09 12:13 | 27.47687 | -82.14124 | 1108 ft | 131 kts | 315° |
| 2026-05-09 12:13 | 27.48329 | -82.14863 | 1106 ft | 132 kts | 315° |
| 2026-05-09 12:13 | 27.48966 | -82.15601 | 1108 ft | 133 kts | 315° |
| 2026-05-09 12:13 | 27.49607 | -82.16343 | 1104 ft | 131 kts | 315° |
| 2026-05-09 12:14 | 27.50239 | -82.17077 | 1108 ft | 130 kts | 315° |
| 2026-05-09 12:14 | 27.50873 | -82.17813 | 1108 ft | 132 kts | 315° |
| 2026-05-09 12:14 | 27.51514 | -82.18553 | 1106 ft | 131 kts | 315° |
| 2026-05-09 12:14 | 27.52147 | -82.19285 | 1107 ft | 131 kts | 315° |
| 2026-05-09 12:15 | 27.52776 | -82.20009 | 1108 ft | 133 kts | 315° |
| 2026-05-09 12:15 | 27.53419 | -82.20748 | 1108 ft | 131 kts | 315° |
| 2026-05-09 12:15 | 27.54057 | -82.21481 | 1106 ft | 133 kts | 315° |
| 2026-05-09 12:15 | 27.54702 | -82.22219 | 1107 ft | 131 kts | 315° |
| 2026-05-09 12:16 | 27.55335 | -82.22949 | 1106 ft | 131 kts | 315° |
| 2026-05-09 12:16 | 27.55970 | -82.23684 | 1107 ft | 132 kts | 315° |
| 2026-05-09 12:16 | 27.56606 | -82.24423 | 1107 ft | 130 kts | 315° |
| 2026-05-09 12:16 | 27.57241 | -82.25150 | 1107 ft | 131 kts | 315° |
| 2026-05-09 12:17 | 27.57869 | -82.25879 | 1107 ft | 131 kts | 315° |
| 2026-05-09 12:17 | 27.58510 | -82.26617 | 1107 ft | 131 kts | 315° |
| 2026-05-09 12:17 | 27.59145 | -82.27348 | 1106 ft | 132 kts | 315° |
| 2026-05-09 12:17 | 27.59782 | -82.28084 | 1107 ft | 130 kts | 315° |
| 2026-05-09 12:18 | 27.60420 | -82.28819 | 1108 ft | 131 kts | 315° |
| 2026-05-09 12:18 | 27.61056 | -82.29550 | 1107 ft | 131 kts | 315° |
| 2026-05-09 12:18 | 27.61696 | -82.30295 | 1108 ft | 131 kts | 315° |
| 2026-05-09 12:18 | 27.62328 | -82.31035 | 1106 ft | 132 kts | 315° |
| 2026-05-09 12:19 | 27.62964 | -82.31772 | 1108 ft | 131 kts | 315° |
| 2026-05-09 12:19 | 27.63590 | -82.32496 | 1108 ft | 130 kts | 315° |
| 2026-05-09 12:19 | 27.64223 | -82.33232 | 1110 ft | 131 kts | 315° |
| 2026-05-09 12:19 | 27.64869 | -82.33972 | 1110 ft | 132 kts | 315° |
| 2026-05-09 12:20 | 27.65506 | -82.34705 | 1110 ft | 131 kts | 315° |
| 2026-05-09 12:20 | 27.66144 | -82.35442 | 1111 ft | 131 kts | 315° |
| 2026-05-09 12:20 | 27.66783 | -82.36177 | 1109 ft | 131 kts | 315° |
| 2026-05-09 12:20 | 27.67425 | -82.36915 | 1110 ft | 132 kts | 315° |
| 2026-05-09 12:21 | 27.68067 | -82.37648 | 1108 ft | 132 kts | 315° |
| 2026-05-09 12:21 | 27.68702 | -82.38378 | 1110 ft | 132 kts | 315° |
| 2026-05-09 12:21 | 27.69344 | -82.39117 | 1107 ft | 132 kts | 315° |
| 2026-05-09 12:21 | 27.69982 | -82.39854 | 1107 ft | 131 kts | 315° |
| 2026-05-09 12:22 | 27.70616 | -82.40589 | 1103 ft | 131 kts | 315° |
| 2026-05-09 12:22 | 27.71255 | -82.41331 | 1102 ft | 131 kts | 315° |
| 2026-05-09 12:22 | 27.71886 | -82.42067 | 1103 ft | 130 kts | 315° |
| 2026-05-09 12:22 | 27.72524 | -82.42810 | 1103 ft | 132 kts | 315° |
| 2026-05-09 12:23 | 27.73157 | -82.43542 | 1103 ft | 131 kts | 315° |
| 2026-05-09 12:23 | 27.73794 | -82.44276 | 1103 ft | 132 kts | 315° |
| 2026-05-09 12:23 | 27.74446 | -82.45028 | 1103 ft | 132 kts | 315° |
| 2026-05-09 12:23 | 27.75074 | -82.45756 | 1103 ft | 131 kts | 315° |
| 2026-05-09 12:24 | 27.75710 | -82.46498 | 1103 ft | 131 kts | 315° |
| 2026-05-09 12:24 | 27.76345 | -82.47252 | 1103 ft | 131 kts | 315° |
| 2026-05-09 12:24 | 27.76980 | -82.47995 | 1104 ft | 131 kts | 315° |
| 2026-05-09 12:24 | 27.77616 | -82.48740 | 1103 ft | 132 kts | 315° |
| 2026-05-09 12:25 | 27.78253 | -82.49489 | 1105 ft | 132 kts | 315° |
| 2026-05-09 12:25 | 27.78886 | -82.50223 | 1118 ft | 132 kts | 315° |
| 2026-05-09 12:25 | 27.79524 | -82.50965 | 1116 ft | 132 kts | 315° |
| 2026-05-09 12:25 | 27.80159 | -82.51706 | 1118 ft | 132 kts | 315° |
| 2026-05-09 12:26 | 27.80802 | -82.52450 | 1117 ft | 132 kts | 315° |
| 2026-05-09 12:26 | 27.81443 | -82.53196 | 1117 ft | 133 kts | 315° |
| 2026-05-09 12:26 | 27.82081 | -82.53939 | 1117 ft | 132 kts | 315° |
| 2026-05-09 12:26 | 27.82701 | -82.54717 | 1112 ft | 137 kts | 301° |
| 2026-05-09 12:27 | 27.83156 | -82.55626 | 1119 ft | 133 kts | 299° |
| 2026-05-09 12:27 | 27.83601 | -82.56552 | 1119 ft | 132 kts | 299° |
| 2026-05-09 12:27 | 27.84035 | -82.57457 | 1118 ft | 133 kts | 299° |
| 2026-05-09 12:27 | 27.84472 | -82.58369 | 1117 ft | 132 kts | 299° |
| 2026-05-09 12:28 | 27.84905 | -82.59270 | 1116 ft | 132 kts | 299° |
| 2026-05-09 12:28 | 27.85342 | -82.60176 | 1117 ft | 132 kts | 299° |
| 2026-05-09 12:28 | 27.85779 | -82.61085 | 1117 ft | 132 kts | 299° |
| 2026-05-09 12:28 | 27.86217 | -82.62001 | 1126 ft | 132 kts | 299° |
| 2026-05-09 12:29 | 27.86653 | -82.62914 | 1125 ft | 132 kts | 299° |
| 2026-05-09 12:29 | 27.87091 | -82.63820 | 1125 ft | 132 kts | 299° |
| 2026-05-09 12:29 | 27.87526 | -82.64713 | 1126 ft | 131 kts | 299° |
| 2026-05-09 12:29 | 27.87973 | -82.65623 | 1121 ft | 132 kts | 308° |
| 2026-05-09 12:30 | 27.88507 | -82.66457 | 1127 ft | 131 kts | 308° |
| 2026-05-09 12:30 | 27.89073 | -82.67268 | 1127 ft | 132 kts | 308° |
| 2026-05-09 12:30 | 27.89836 | -82.68604 | 708 ft | 67 kts | 304° |
| 2026-05-09 12:31 | 27.89966 | -82.69014 | 508 ft | 44 kts | 329° |
| 2026-05-09 12:31 | 27.90352 | -82.69319 | 355 ft | 47 kts | 355° |
| 2026-05-09 12:31 | 27.90658 | -82.69453 | 310 ft | 48 kts | 351° |
| 2026-05-09 12:32 | 27.90946 | -82.69576 | 322 ft | 38 kts | 349° |
| 2026-05-09 12:32 | 27.91145 | -82.69631 | 265 ft | 22 kts | 19° |
| 2026-05-09 12:32 | 27.91243 | -82.69529 | 97 ft | 15 kts | 63° |
| 2026-05-09 12:32 | 27.91313 | -82.69494 | 28 ft | 3 kts | 134° |
| 2026-05-09 12:33 | 27.91306 | -82.69482 | 26 ft | 5 kts | 137° |
| 2026-05-09 12:33 | 27.91303 | -82.69477 | 19 ft | 0 kts | 135° |